Aurora, Missouri
Current Conditions -  °F | °C
As of 11:35 AM on Thursday 30 Oct 2014 (Local Time) from KHFJ Reporting Station
Broken Clouds Broken Clouds  
Wind Chill: 61°   Ceiling: 8500
Heat Index: 61°   Visibility: 10mi
Dew Point: 45°   Wind: 14mph
Humidity: 55%   Direction: 210°SSW
Pressure: 30.07"   Gusts: NA
Location:  36.97°N, 93.72°W
Report Text: KHFJ 301635Z AUTO 21012KT 10SM BKN085 BKN120 16/07 A3007 RMK AO2
Loading
Personal Weather Stations






























Interactive Weather Map
Tropical Storm Tracking
New forecast layout! Learn more

10-Day Weather Forecast

Advertisements
Track Severe Weather on mobile